Time;durP1;ratioP1;P1;durP2;ratioP2;P2;SDS_P1;SDS_P2;PMS_P1;PMS_P2;Temp;Humidity;BMP_temperature;BMP_pressure;BME280_temperature;BME280_humidity;BME280_pressure;Samples;Min_cycle;Max_cycle;Signal;HPM_P1;HPM_P2
2020/12/01 00:02:22;;;;;;;18.40;8.30;;;;;;;;;;5034459;28;20446;-72
2020/12/01 00:04:48;;;;;;;21.23;9.40;;;;;;;;;;5032960;28;20541;-72
2020/12/01 00:07:14;;;;;;;27.90;11.73;;;;;;;;;;5034484;28;20422;-72
2020/12/01 00:09:40;;;;;;;13.73;8.63;;;;;;;;;;5033239;28;20469;-72
2020/12/01 00:12:06;;;;;;;20.73;9.40;;;;;;;;;;5033463;28;20419;-72
2020/12/01 00:14:32;;;;;;;20.03;9.50;;;;;;;;;;5033243;28;20470;-72
2020/12/01 00:16:58;;;;;;;21.53;8.70;;;;;;;;;;5033858;28;20410;-72
2020/12/01 00:19:24;;;;;;;19.40;9.53;;;;;;;;;;5035640;28;20539;-72
2020/12/01 00:21:50;;;;;;;14.87;9.07;;;;;;;;;;5033969;28;20525;-71
2020/12/01 00:24:16;;;;;;;17.13;8.80;;;;;;;;;;5045388;28;20466;-71
2020/12/01 00:26:43;;;;;;;24.07;9.93;;;;;;;;;;5053655;28;20394;-71
2020/12/01 00:29:09;;;;;;;18.50;8.50;;;;;;;;;;5052067;28;20521;-71
2020/12/01 00:31:39;;;;;;;19.03;10.63;;;;;;;;;;5053798;28;20448;-71
2020/12/01 00:34:06;;;;;;;13.57;8.27;;;;;;;;;;5040257;28;20442;-72
2020/12/01 00:36:32;;;;;;;25.23;10.47;;;;;;;;;;5033067;28;20434;-71
2020/12/01 00:38:58;;;;;;;16.00;8.30;;;;;;;;;;5042051;28;20433;-71
2020/12/01 00:41:24;;;;;;;18.27;9.17;;;;;;;;;;5053715;28;20449;-71
2020/12/01 00:43:50;;;;;;;28.93;9.50;;;;;;;;;;5051426;28;20433;-71
2020/12/01 00:46:16;;;;;;;24.83;10.40;;;;;;;;;;5053158;28;20455;-71
2020/12/01 00:48:42;;;;;;;19.73;10.40;;;;;;;;;;5051729;28;20433;-71
2020/12/01 00:51:08;;;;;;;21.47;11.23;;;;;;;;;;5051286;28;21002;-71
2020/12/01 00:53:34;;;;;;;14.23;9.07;;;;;;;;;;5051295;28;20523;-71
2020/12/01 00:56:00;;;;;;;23.87;10.70;;;;;;;;;;5029496;28;20529;-71
2020/12/01 00:58:26;;;;;;;19.83;9.23;;;;;;;;;;5032205;28;20907;-71
2020/12/01 01:00:53;;;;;;;16.73;8.70;;;;;;;;;;5033502;28;20465;-71
2020/12/01 01:03:18;;;;;;;16.77;9.73;;;;;;;;;;5032355;28;20783;-71
2020/12/01 01:05:45;;;;;;;17.13;8.70;;;;;;;;;;5033570;28;20395;-71
2020/12/01 01:08:11;;;;;;;20.27;8.80;;;;;;;;;;5032245;28;20453;-71
2020/12/01 01:10:37;;;;;;;24.97;10.07;;;;;;;;;;5033299;28;20426;-72
2020/12/01 01:13:03;;;;;;;17.60;10.33;;;;;;;;;;5048047;28;20435;-71
2020/12/01 01:15:31;;;;;;;26.40;10.67;;;;;;;;;;5053349;28;20422;-71
2020/12/01 01:17:58;;;;;;;21.10;9.70;;;;;;;;;;5046327;28;20783;-71
2020/12/01 01:20:25;;;;;;;15.93;8.53;;;;;;;;;;5051753;28;20502;-72
2020/12/01 01:22:51;;;;;;;20.37;9.70;;;;;;;;;;5054077;28;20497;-72
2020/12/01 01:25:18;;;;;;;17.33;9.10;;;;;;;;;;5054551;28;20422;-72
2020/12/01 01:27:47;;;;;;;16.67;10.07;;;;;;;;;;5055484;28;20772;-72
2020/12/01 01:30:18;;;;;;;19.03;8.20;;;;;;;;;;5036056;28;20853;-71
2020/12/01 01:32:44;;;;;;;23.87;10.03;;;;;;;;;;5051911;28;20426;-72
2020/12/01 01:35:10;;;;;;;18.23;8.17;;;;;;;;;;5035592;28;20434;-71
2020/12/01 01:37:36;;;;;;;18.90;9.23;;;;;;;;;;5036473;28;20407;-72
2020/12/01 01:40:03;;;;;;;20.80;11.17;;;;;;;;;;5050479;28;20912;-71
2020/12/01 01:42:29;;;;;;;17.50;10.17;;;;;;;;;;5036578;28;20865;-71
2020/12/01 01:44:55;;;;;;;24.83;10.50;;;;;;;;;;5049637;28;20422;-72
2020/12/01 01:47:21;;;;;;;14.70;8.57;;;;;;;;;;5056145;28;20402;-72
2020/12/01 01:49:49;;;;;;;21.60;9.77;;;;;;;;;;5054171;28;20937;-72
2020/12/01 01:52:18;;;;;;;18.20;9.57;;;;;;;;;;5056385;28;20417;-72
2020/12/01 01:54:46;;;;;;;16.43;9.43;;;;;;;;;;5051461;28;20528;-71
2020/12/01 01:57:12;;;;;;;15.90;7.37;;;;;;;;;;5034138;28;20427;-71
2020/12/01 01:59:39;;;;;;;20.30;8.47;;;;;;;;;;5045450;28;20447;-71
2020/12/01 02:02:05;;;;;;;15.50;8.63;;;;;;;;;;5056004;28;20457;-72
2020/12/01 02:04:31;;;;;;;16.50;9.03;;;;;;;;;;5054093;28;20495;-71
2020/12/01 02:07:01;;;;;;;13.40;7.63;;;;;;;;;;5055899;28;20410;-72
2020/12/01 02:09:27;;;;;;;17.50;8.13;;;;;;;;;;5054152;28;20433;-72
2020/12/01 02:11:53;;;;;;;15.67;8.67;;;;;;;;;;5057619;28;20450;-71
2020/12/01 02:14:22;;;;;;;16.40;9.70;;;;;;;;;;5033001;28;20985;-73
2020/12/01 02:16:52;;;;;;;15.20;8.50;;;;;;;;;;5017106;28;20400;-73
2020/12/01 02:19:22;;;;;;;17.57;8.67;;;;;;;;;;5031826;28;20446;-73
2020/12/01 02:21:48;;;;;;;20.87;9.53;;;;;;;;;;5054385;28;20481;-73
2020/12/01 02:24:17;;;;;;;16.00;8.63;;;;;;;;;;5053544;28;20426;-73
2020/12/01 02:26:44;;;;;;;16.07;8.07;;;;;;;;;;5035072;28;20431;-72
2020/12/01 02:29:13;;;;;;;19.77;7.00;;;;;;;;;;5033567;28;20452;-72
2020/12/01 02:31:40;;;;;;;20.40;9.37;;;;;;;;;;5034371;28;20470;-71
2020/12/01 02:34:07;;;;;;;18.17;8.07;;;;;;;;;;5034770;28;20452;-70
2020/12/01 02:36:33;;;;;;;22.27;9.23;;;;;;;;;;5055297;28;20406;-71
2020/12/01 02:38:59;;;;;;;16.97;8.20;;;;;;;;;;5053331;28;20410;-70
2020/12/01 02:41:25;;;;;;;20.70;8.53;;;;;;;;;;5055150;28;20503;-72
2020/12/01 02:43:51;;;;;;;12.30;6.70;;;;;;;;;;5055218;28;20797;-71
2020/12/01 02:46:17;;;;;;;21.97;8.63;;;;;;;;;;5053138;28;20487;-71
2020/12/01 02:48:43;;;;;;;16.83;7.90;;;;;;;;;;5055173;28;20421;-72
2020/12/01 02:51:09;;;;;;;16.70;8.33;;;;;;;;;;5035467;28;20968;-71
2020/12/01 02:53:35;;;;;;;21.57;9.53;;;;;;;;;;5052502;28;20440;-70
2020/12/01 02:56:01;;;;;;;17.60;10.20;;;;;;;;;;5053321;28;20788;-73
2020/12/01 02:58:27;;;;;;;15.77;7.90;;;;;;;;;;5036669;28;20426;-71
2020/12/01 03:00:53;;;;;;;11.07;6.87;;;;;;;;;;5048413;28;20465;-71
2020/12/01 03:03:19;;;;;;;23.80;8.63;;;;;;;;;;5039078;28;20476;-71
2020/12/01 03:05:45;;;;;;;16.50;7.57;;;;;;;;;;5047222;28;20470;-71
2020/12/01 03:08:11;;;;;;;23.07;9.07;;;;;;;;;;5055357;28;20405;-77
2020/12/01 03:10:37;;;;;;;12.87;8.17;;;;;;;;;;5053624;28;20449;-76
2020/12/01 03:13:03;;;;;;;19.63;8.70;;;;;;;;;;5055539;28;20418;-73
2020/12/01 03:15:29;;;;;;;20.60;9.40;;;;;;;;;;5053487;28;20934;-75
2020/12/01 03:17:55;;;;;;;21.43;8.83;;;;;;;;;;5053052;28;20501;-71
2020/12/01 03:20:21;;;;;;;21.10;9.80;;;;;;;;;;5052678;28;20923;-71
2020/12/01 03:22:47;;;;;;;13.33;7.50;;;;;;;;;;5055554;28;20402;-72
2020/12/01 03:25:13;;;;;;;17.27;9.40;;;;;;;;;;5052831;28;20850;-71
2020/12/01 03:27:39;;;;;;;16.90;8.20;;;;;;;;;;5052752;28;20430;-71
2020/12/01 03:30:06;;;;;;;24.47;9.03;;;;;;;;;;5052555;28;20456;-71
2020/12/01 03:32:32;;;;;;;21.43;9.50;;;;;;;;;;5054474;28;20410;-71
2020/12/01 03:34:59;;;;;;;13.73;7.90;;;;;;;;;;5052396;28;20784;-71
2020/12/01 03:37:25;;;;;;;20.93;8.87;;;;;;;;;;5054292;28;20398;-72
2020/12/01 03:39:51;;;;;;;23.20;8.43;;;;;;;;;;5052384;28;20443;-71
2020/12/01 03:42:17;;;;;;;15.37;7.83;;;;;;;;;;5054490;28;20556;-71
2020/12/01 03:44:43;;;;;;;25.33;9.50;;;;;;;;;;5052157;28;20452;-72
2020/12/01 03:47:09;;;;;;;15.07;8.07;;;;;;;;;;5053928;28;20402;-72
2020/12/01 03:49:35;;;;;;;15.10;8.30;;;;;;;;;;5050308;28;20486;-72
2020/12/01 03:52:01;;;;;;;14.30;9.43;;;;;;;;;;5034384;28;20774;-72
2020/12/01 03:54:27;;;;;;;20.67;8.93;;;;;;;;;;5033808;28;20399;-72
2020/12/01 03:56:53;;;;;;;18.47;8.37;;;;;;;;;;5053998;28;20902;-72
2020/12/01 03:59:19;;;;;;;19.70;8.50;;;;;;;;;;5034025;28;20453;-72
2020/12/01 04:01:45;;;;;;;19.10;9.40;;;;;;;;;;5034908;28;20462;-72
2020/12/01 04:04:11;;;;;;;13.93;7.93;;;;;;;;;;5033792;28;20452;-72
2020/12/01 04:06:37;;;;;;;18.37;9.50;;;;;;;;;;5050943;28;20429;-72
2020/12/01 04:09:04;;;;;;;22.93;8.10;;;;;;;;;;5053766;28;20393;-72
2020/12/01 04:11:30;;;;;;;17.63;7.83;;;;;;;;;;5051929;28;20434;-72
2020/12/01 04:13:56;;;;;;;21.17;8.50;;;;;;;;;;5053609;28;20418;-72
2020/12/01 04:16:22;;;;;;;16.00;8.00;;;;;;;;;;5050553;28;20421;-72
2020/12/01 04:18:48;;;;;;;22.73;9.03;;;;;;;;;;5053663;28;20398;-72
2020/12/01 04:21:15;;;;;;;15.90;7.70;;;;;;;;;;5051551;28;20496;-72
2020/12/01 04:23:41;;;;;;;14.63;9.00;;;;;;;;;;5052575;28;20895;-72
2020/12/01 04:26:07;;;;;;;22.60;9.63;;;;;;;;;;5045600;28;20534;-72
2020/12/01 04:28:33;;;;;;;18.00;8.83;;;;;;;;;;5053668;28;20394;-72
2020/12/01 04:30:59;;;;;;;21.17;8.93;;;;;;;;;;5051639;28;21023;-72
2020/12/01 04:33:25;;;;;;;17.83;9.23;;;;;;;;;;5051678;28;20421;-72
2020/12/01 04:35:51;;;;;;;14.47;8.07;;;;;;;;;;5051651;28;20428;-72
2020/12/01 04:38:17;;;;;;;17.50;9.27;;;;;;;;;;5052210;28;20414;-72
2020/12/01 04:40:44;;;;;;;15.13;8.90;;;;;;;;;;5051375;28;20552;-72
2020/12/01 04:43:18;;;;;;;17.93;9.93;;;;;;;;;;5053411;28;20398;-72
2020/12/01 04:45:46;;;;;;;15.13;7.93;;;;;;;;;;5042198;28;20914;-72
2020/12/01 04:48:15;;;;;;;21.13;8.70;;;;;;;;;;5032426;28;20433;-71
2020/12/01 04:50:45;;;;;;;15.00;7.63;;;;;;;;;;5040807;28;20458;-72
2020/12/01 04:53:32;;;;;;;17.63;9.10;;;;;;;;;;5053603;28;20497;-72
2020/12/01 04:56:13;;;;;;;13.30;8.27;;;;;;;;;;5051171;28;20429;-72
2020/12/01 04:58:58;;;;;;;17.60;8.50;;;;;;;;;;5057717;28;20390;-70
2020/12/01 05:01:33;;;;;;;16.97;8.80;;;;;;;;;;5038717;28;20480;-72
2020/12/01 05:04:12;;;;;;;16.60;8.67;;;;;;;;;;5037835;28;20407;-71
2020/12/01 05:09:31;;;;;;;18.10;8.90;;;;;;;;;;5057472;28;20425;-71
2020/12/01 05:11:59;;;;;;;12.70;7.53;;;;;;;;;;5036919;28;20484;-71
2020/12/01 05:14:30;;;;;;;15.73;8.60;;;;;;;;;;5035022;28;20430;-71
2020/12/01 05:17:15;;;;;;;14.40;8.73;;;;;;;;;;5035279;28;20470;-71
2020/12/01 05:19:41;;;;;;;20.37;8.83;;;;;;;;;;5037057;28;20410;-71
2020/12/01 05:22:08;;;;;;;14.27;9.30;;;;;;;;;;5026847;28;20606;-72
2020/12/01 05:24:41;;;;;;;17.90;8.53;;;;;;;;;;5021753;28;20885;-71
2020/12/01 05:27:18;;;;;;;14.77;9.40;;;;;;;;;;5051493;28;20441;-71
2020/12/01 05:29:44;;;;;;;18.03;9.70;;;;;;;;;;5061518;28;20422;-71
2020/12/01 05:32:10;;;;;;;11.37;7.20;;;;;;;;;;5056949;28;20449;-73
2020/12/01 05:34:36;;;;;;;16.00;7.57;;;;;;;;;;5056321;28;20508;-73
2020/12/01 05:37:06;;;;;;;10.57;7.37;;;;;;;;;;5035156;28;20920;-71
2020/12/01 05:39:34;;;;;;;15.03;7.20;;;;;;;;;;5037148;28;20843;-72
2020/12/01 05:42:05;;;;;;;13.33;7.33;;;;;;;;;;5048588;28;21051;-72
2020/12/01 05:44:32;;;;;;;14.83;7.53;;;;;;;;;;5057254;28;20439;-72
2020/12/01 05:47:14;;;;;;;12.50;7.30;;;;;;;;;;5054931;28;20516;-72
2020/12/01 05:49:44;;;;;;;14.93;7.63;;;;;;;;;;5054729;28;20455;-73
2020/12/01 05:52:28;;;;;;;13.03;6.20;;;;;;;;;;5028328;28;20515;-72
2020/12/01 05:55:12;;;;;;;11.30;5.80;;;;;;;;;;5016855;28;20779;-72
2020/12/01 05:57:38;;;;;;;13.83;6.80;;;;;;;;;;5051616;28;20422;-72
2020/12/01 06:00:06;;;;;;;12.13;6.50;;;;;;;;;;5056457;28;20600;-72
2020/12/01 06:02:52;;;;;;;9.73;6.47;;;;;;;;;;5050381;28;20430;-71
2020/12/01 06:05:20;;;;;;;15.47;6.50;;;;;;;;;;5021532;28;20467;-72
2020/12/01 06:07:49;;;;;;;15.17;6.87;;;;;;;;;;5052921;28;20495;-73
2020/12/01 06:10:18;;;;;;;9.87;5.47;;;;;;;;;;5055709;28;20525;-71
2020/12/01 06:12:50;;;;;;;14.97;6.40;;;;;;;;;;5054771;28;20529;-73
2020/12/01 06:15:21;;;;;;;13.20;7.60;;;;;;;;;;5053785;28;20408;-73
2020/12/01 06:18:00;;;;;;;11.83;6.03;;;;;;;;;;5053151;28;20825;-73
2020/12/01 06:20:35;;;;;;;11.27;6.80;;;;;;;;;;5054746;28;20455;-71
2020/12/01 06:23:20;;;;;;;17.73;7.80;;;;;;;;;;5050796;28;20967;-71
2020/12/01 06:26:05;;;;;;;10.27;6.40;;;;;;;;;;5019000;28;20514;-72
2020/12/01 06:28:33;;;;;;;12.40;6.10;;;;;;;;;;5033742;28;20488;-75
2020/12/01 06:31:00;;;;;;;14.70;8.37;;;;;;;;;;5036671;28;20442;-73
2020/12/01 06:33:32;;;;;;;10.00;6.70;;;;;;;;;;5055536;28;20398;-73
2020/12/01 06:35:58;;;;;;;11.77;7.10;;;;;;;;;;5053286;28;20434;-73
2020/12/01 06:38:39;;;;;;;8.40;6.63;;;;;;;;;;5055303;28;20437;-74
2020/12/01 06:41:11;;;;;;;11.43;6.43;;;;;;;;;;5036106;28;20465;-72
2020/12/01 06:43:39;;;;;;;10.97;6.57;;;;;;;;;;5035321;28;20419;-73
2020/12/01 06:46:21;;;;;;;10.00;6.17;;;;;;;;;;5036690;28;20907;-73
2020/12/01 06:48:48;;;;;;;10.00;6.60;;;;;;;;;;5031275;28;20426;-72
2020/12/01 06:51:15;;;;;;;8.90;5.60;;;;;;;;;;5037649;28;20457;-70
2020/12/01 06:53:42;;;;;;;14.23;7.03;;;;;;;;;;5047703;28;20411;-70
2020/12/01 06:56:08;;;;;;;10.27;5.93;;;;;;;;;;5050491;28;20827;-69
2020/12/01 06:58:36;;;;;;;12.17;6.03;;;;;;;;;;5052514;28;20420;-70
2020/12/01 07:01:11;;;;;;;10.03;5.53;;;;;;;;;;5033349;28;20442;-71
2020/12/01 07:03:39;;;;;;;13.00;8.17;;;;;;;;;;5035216;28;20419;-71
2020/12/01 07:06:12;;;;;;;10.67;5.97;;;;;;;;;;5028329;28;20435;-71
2020/12/01 07:08:38;;;;;;;9.33;4.97;;;;;;;;;;5034763;28;20407;-71
2020/12/01 07:11:06;;;;;;;11.17;6.17;;;;;;;;;;5034754;28;20800;-71
2020/12/01 07:13:36;;;;;;;10.87;6.10;;;;;;;;;;5040456;28;20948;-74
2020/12/01 07:16:07;;;;;;;18.13;6.80;;;;;;;;;;5035328;28;20391;-70
2020/12/01 07:18:33;;;;;;;11.00;6.85;;;;;;;;;;5054516;28;20412;-70
2020/12/01 07:21:02;;;;;;;11.40;7.20;;;;;;;;;;5045093;28;20193;-71
2020/12/01 07:23:30;;;;;;;10.90;7.17;;;;;;;;;;5033885;28;20407;-71
2020/12/01 07:26:15;;;;;;;16.70;6.73;;;;;;;;;;5033352;28;20822;-71
2020/12/01 07:29:00;;;;;;;11.00;6.17;;;;;;;;;;5031633;28;20931;-72
2020/12/01 07:31:31;;;;;;;13.73;6.90;;;;;;;;;;5036785;28;20422;-70
2020/12/01 07:34:17;;;;;;;11.90;6.77;;;;;;;;;;5054621;28;20410;-71
2020/12/01 07:36:46;;;;;;;12.17;7.10;;;;;;;;;;5052411;28;20512;-73
2020/12/01 07:39:12;;;;;;;14.70;7.63;;;;;;;;;;5036558;28;20467;-69
2020/12/01 07:41:48;;;;;;;19.53;8.60;;;;;;;;;;5033043;28;20594;-70
2020/12/01 07:44:17;;;;;;;9.63;6.03;;;;;;;;;;5032391;28;20406;-70
2020/12/01 07:49:17;;;;;;;11.77;6.40;;;;;;;;;;5035196;28;20460;-69
2020/12/01 07:51:43;;;;;;;15.73;7.07;;;;;;;;;;5026890;28;20434;-71
2020/12/01 07:54:10;;;;;;;12.50;6.70;;;;;;;;;;5030247;28;20431;-72
2020/12/01 07:56:39;;;;;;;16.07;7.53;;;;;;;;;;5032233;28;20518;-71
2020/12/01 07:59:06;;;;;;;9.60;7.03;;;;;;;;;;5043391;28;20415;-73
2020/12/01 08:01:33;;;;;;;15.47;7.37;;;;;;;;;;5031896;28;21029;-72
2020/12/01 08:04:05;;;;;;;10.73;6.80;;;;;;;;;;5034169;28;20494;-73
2020/12/01 08:06:31;;;;;;;10.93;6.50;;;;;;;;;;5029475;28;20823;-72
2020/12/01 08:08:57;;;;;;;9.73;5.50;;;;;;;;;;5048477;28;20751;-70
2020/12/01 08:11:24;;;;;;;9.00;6.57;;;;;;;;;;5033809;28;20476;-69
2020/12/01 08:13:54;;;;;;;16.80;8.03;;;;;;;;;;5043291;28;20798;-69
2020/12/01 08:16:22;;;;;;;12.40;7.50;;;;;;;;;;5031447;28;21029;-71
2020/12/01 08:18:50;;;;;;;13.03;8.13;;;;;;;;;;5033317;28;20419;-71
2020/12/01 08:21:18;;;;;;;12.70;6.40;;;;;;;;;;5032439;28;20454;-70
2020/12/01 08:23:46;;;;;;;15.63;7.43;;;;;;;;;;5028032;28;20446;-71
2020/12/01 08:26:13;;;;;;;14.00;6.83;;;;;;;;;;5033033;28;20432;-71
2020/12/01 08:28:43;;;;;;;12.60;6.80;;;;;;;;;;5044239;28;20415;-70
2020/12/01 08:31:15;;;;;;;15.80;5.80;;;;;;;;;;5032597;28;20447;-70
2020/12/01 08:33:43;;;;;;;14.90;6.90;;;;;;;;;;5033401;28;20423;-70
2020/12/01 08:36:20;;;;;;;11.00;6.80;;;;;;;;;;5029687;28;20418;-72
2020/12/01 08:38:46;;;;;;;7.70;6.17;;;;;;;;;;5029067;28;20406;-70
2020/12/01 08:41:35;;;;;;;13.13;6.53;;;;;;;;;;5033169;28;20902;-71
2020/12/01 08:44:07;;;;;;;12.17;7.30;;;;;;;;;;5028799;28;20712;-72
2020/12/01 08:46:34;;;;;;;10.70;5.90;;;;;;;;;;5032613;28;20418;-69
2020/12/01 08:49:07;;;;;;;17.73;6.53;;;;;;;;;;5027106;28;20416;-70
2020/12/01 08:51:48;;;;;;;9.97;5.27;;;;;;;;;;5028155;28;20459;-70
2020/12/01 08:54:16;;;;;;;14.37;6.83;;;;;;;;;;5023139;28;20494;-70
2020/12/01 08:56:49;;;;;;;17.40;6.77;;;;;;;;;;5026068;28;20503;-69
2020/12/01 08:59:18;;;;;;;9.00;5.80;;;;;;;;;;5037348;28;20481;-69
2020/12/01 09:01:45;;;;;;;9.90;6.40;;;;;;;;;;5024059;28;21070;-70
2020/12/01 09:04:28;;;;;;;13.40;6.20;;;;;;;;;;5028404;28;20411;-69
2020/12/01 09:06:56;;;;;;;10.73;5.80;;;;;;;;;;5031876;28;20512;-71
2020/12/01 09:09:26;;;;;;;13.87;5.70;;;;;;;;;;5025396;28;20871;-70
2020/12/01 09:17:30;;;;;;;8.47;5.50;;;;;;;;;;5031028;28;20488;-74
2020/12/01 09:20:14;;;;;;;8.50;5.90;;;;;;;;;;5031748;28;20438;-73
2020/12/01 09:22:40;;;;;;;9.73;5.93;;;;;;;;;;5023680;28;20783;-71
2020/12/01 09:25:08;;;;;;;10.63;6.77;;;;;;;;;;5031329;28;20415;-71
2020/12/01 09:27:34;;;;;;;9.90;5.07;;;;;;;;;;5039322;28;20774;-71
2020/12/01 09:30:01;;;;;;;8.53;5.67;;;;;;;;;;5048213;28;20437;-73
2020/12/01 09:32:27;;;;;;;12.83;6.40;;;;;;;;;;5015140;28;20426;-75
2020/12/01 09:34:53;;;;;;;13.63;6.47;;;;;;;;;;5033308;28;20931;-74
2020/12/01 09:37:19;;;;;;;16.20;7.53;;;;;;;;;;5034438;28;20529;-71
2020/12/01 09:39:46;;;;;;;9.47;5.27;;;;;;;;;;5027470;28;20521;-71
2020/12/01 09:47:28;;;;;;;9.10;5.80;;;;;;;;;;5039674;28;20430;-71
2020/12/01 09:49:54;;;;;;;9.87;6.00;;;;;;;;;;5025044;28;20464;-71
2020/12/01 09:52:25;;;;;;;7.77;4.27;;;;;;;;;;5028282;28;20492;-69
2020/12/01 09:55:12;;;;;;;7.63;5.17;;;;;;;;;;5022566;28;20426;-73
2020/12/01 10:00:50;;;;;;;8.47;5.23;;;;;;;;;;5031519;28;20482;-72
2020/12/01 10:08:41;;;;;;;7.23;4.80;;;;;;;;;;5026638;28;20423;-70
2020/12/01 10:12:02;;;;;;;10.63;5.30;;;;;;;;;;5030188;28;20465;-76
2020/12/01 10:29:16;;;;;;;9.93;4.70;;;;;;;;;;5029188;28;20427;-72
2020/12/01 10:35:38;;;;;;;6.53;4.13;;;;;;;;;;5021666;28;20473;-70
2020/12/01 10:38:04;;;;;;;7.73;4.77;;;;;;;;;;5032309;28;20422;-69
2020/12/01 10:40:30;;;;;;;11.83;6.43;;;;;;;;;;5027328;28;20431;-66
2020/12/01 10:42:57;;;;;;;6.50;4.10;;;;;;;;;;5028722;28;20474;-67
2020/12/01 10:45:24;;;;;;;13.23;4.77;;;;;;;;;;5025642;28;20420;-68
2020/12/01 10:47:50;;;;;;;7.93;5.00;;;;;;;;;;5029416;28;20431;-71
2020/12/01 10:50:17;;;;;;;12.53;6.53;;;;;;;;;;5025817;28;20458;-73
2020/12/01 10:52:43;;;;;;;8.83;5.30;;;;;;;;;;5024420;28;20442;-72
2020/12/01 10:55:14;;;;;;;8.33;4.13;;;;;;;;;;5022280;28;20415;-72
2020/12/01 10:57:40;;;;;;;9.60;6.00;;;;;;;;;;5027376;28;20432;-72
2020/12/01 11:00:07;;;;;;;10.33;5.40;;;;;;;;;;5025048;28;20439;-73
2020/12/01 11:02:33;;;;;;;7.23;5.10;;;;;;;;;;5023480;28;20450;-70
2020/12/01 11:04:59;;;;;;;9.67;5.90;;;;;;;;;;5066979;22;20524;-82
2020/12/01 11:07:25;;;;;;;8.13;5.37;;;;;;;;;;5061135;28;20485;-85
2020/12/01 11:09:51;;;;;;;7.43;4.97;;;;;;;;;;5059402;28;20446;-85
2020/12/01 11:12:17;;;;;;;7.40;4.90;;;;;;;;;;5057631;28;20438;-85
2020/12/01 11:14:43;;;;;;;11.10;6.07;;;;;;;;;;5057246;28;20517;-84
2020/12/01 11:17:09;;;;;;;14.23;6.17;;;;;;;;;;5093116;28;20414;-84
2020/12/01 11:19:37;;;;;;;8.77;4.97;;;;;;;;;;5092189;28;20520;-86
2020/12/01 11:22:08;;;;;;;8.60;4.87;;;;;;;;;;5060805;28;20458;-84
2020/12/01 11:25:13;;;;;;;;;;;;;;;;;;;;;
2020/12/01 11:27:40;;;;;;;11.77;6.33;;;;;;;;;;5051468;28;20481;-87
2020/12/01 11:30:06;;;;;;;6.97;4.73;;;;;;;;;;5056379;28;20456;-86
2020/12/01 11:32:35;;;;;;;10.10;5.80;;;;;;;;;;5053830;28;20414;-85
2020/12/01 11:35:18;;;;;;;7.00;4.83;;;;;;;;;;5054186;28;20429;-84
2020/12/01 11:37:45;;;;;;;7.57;4.60;;;;;;;;;;5077345;28;20407;-87
2020/12/01 11:40:12;;;;;;;6.53;5.03;;;;;;;;;;5060406;28;20426;-85
2020/12/01 11:42:38;;;;;;;7.50;4.57;;;;;;;;;;5060033;28;20462;-87
2020/12/01 11:45:06;;;;;;;8.27;4.57;;;;;;;;;;5061930;28;20506;-86
2020/12/01 11:47:32;;;;;;;15.13;4.20;;;;;;;;;;5076652;28;20506;-85
2020/12/01 11:49:58;;;;;;;8.17;4.43;;;;;;;;;;5056845;28;20904;-86
2020/12/01 11:52:24;;;;;;;8.40;5.30;;;;;;;;;;5054245;28;20446;-86
2020/12/01 11:54:50;;;;;;;5.47;3.97;;;;;;;;;;5083185;28;20484;-83
2020/12/01 11:57:16;;;;;;;6.97;4.90;;;;;;;;;;5049230;28;20466;-84
2020/12/01 11:59:42;;;;;;;7.47;5.13;;;;;;;;;;5058264;28;20511;-84
2020/12/01 12:02:08;;;;;;;6.57;4.73;;;;;;;;;;5059712;28;20457;-87
2020/12/01 12:04:34;;;;;;;4.50;3.37;;;;;;;;;;5063572;28;20465;-85
2020/12/01 12:07:04;;;;;;;7.07;4.43;;;;;;;;;;5064941;28;20422;-86
2020/12/01 12:09:32;;;;;;;5.27;3.90;;;;;;;;;;5064043;28;20432;-85
2020/12/01 12:12:01;;;;;;;6.00;3.30;;;;;;;;;;5062187;28;20475;-85
2020/12/01 12:14:30;;;;;;;6.27;3.97;;;;;;;;;;5050698;28;20447;-85
2020/12/01 12:16:56;;;;;;;5.80;3.70;;;;;;;;;;5060603;28;20409;-86
2020/12/01 12:19:22;;;;;;;7.73;4.27;;;;;;;;;;5061881;28;20422;-86
2020/12/01 12:21:51;;;;;;;7.23;4.10;;;;;;;;;;5063770;28;20460;-87
2020/12/01 12:24:17;;;;;;;6.73;4.00;;;;;;;;;;5059484;28;20449;-87
2020/12/01 12:26:43;;;;;;;7.90;4.40;;;;;;;;;;5063049;28;20441;-85
2020/12/01 12:29:09;;;;;;;4.37;3.17;;;;;;;;;;5057518;28;20425;-83
2020/12/01 12:31:35;;;;;;;5.60;3.63;;;;;;;;;;5055418;28;20815;-84
2020/12/01 12:34:01;;;;;;;8.43;4.10;;;;;;;;;;5053252;28;20445;-85
2020/12/01 12:36:27;;;;;;;6.13;3.60;;;;;;;;;;5054481;28;20484;-85
2020/12/01 12:39:15;;;;;;;6.60;3.83;;;;;;;;;;5081061;28;20427;-85
2020/12/01 12:41:46;;;;;;;4.83;3.70;;;;;;;;;;5068601;28;20534;-84
2020/12/01 12:44:13;;;;;;;5.53;3.57;;;;;;;;;;5036310;28;20985;-85
2020/12/01 12:46:39;;;;;;;6.90;4.20;;;;;;;;;;5073647;28;20496;-84
2020/12/01 12:49:06;;;;;;;7.77;3.90;;;;;;;;;;5053713;28;20905;-85
2020/12/01 12:51:32;;;;;;;6.53;4.13;;;;;;;;;;5055505;28;20471;-85
2020/12/01 12:53:59;;;;;;;5.20;3.90;;;;;;;;;;5058979;28;20454;-84
2020/12/01 12:56:26;;;;;;;9.67;4.37;;;;;;;;;;5057464;28;20465;-86
2020/12/01 12:58:52;;;;;;;6.30;3.90;;;;;;;;;;5055808;28;20993;-85
2020/12/01 13:01:19;;;;;;;8.07;4.30;;;;;;;;;;5061284;28;20461;-86
2020/12/01 13:03:45;;;;;;;9.53;4.53;;;;;;;;;;5057898;28;20449;-87
2020/12/01 13:06:11;;;;;;;7.33;3.70;;;;;;;;;;5055471;28;20453;-87
2020/12/01 13:08:40;;;;;;;7.70;4.50;;;;;;;;;;5059070;28;20430;-87
2020/12/01 13:11:07;;;;;;;6.80;3.83;;;;;;;;;;5058784;28;20410;-88
2020/12/01 13:13:33;;;;;;;9.73;5.17;;;;;;;;;;5054447;28;20592;-87
2020/12/01 13:16:05;;;;;;;11.33;5.50;;;;;;;;;;5058715;28;20938;-87
2020/12/01 13:18:31;;;;;;;7.87;6.00;;;;;;;;;;5056531;28;20983;-87
2020/12/01 13:20:57;;;;;;;8.10;5.33;;;;;;;;;;5062875;28;20456;-87
2020/12/01 13:23:23;;;;;;;6.73;4.87;;;;;;;;;;5058247;28;20457;-87
2020/12/01 13:25:50;;;;;;;7.57;4.73;;;;;;;;;;5064733;28;20410;-87
2020/12/01 13:28:16;;;;;;;14.10;7.37;;;;;;;;;;5059594;28;20469;-87
2020/12/01 13:30:45;;;;;;;9.10;5.13;;;;;;;;;;5059064;28;20430;-87
2020/12/01 13:33:16;;;;;;;8.20;4.80;;;;;;;;;;5079640;28;20461;-87
2020/12/01 13:35:42;;;;;;;6.97;5.17;;;;;;;;;;5080589;28;20386;-86
2020/12/01 13:38:08;;;;;;;9.30;6.50;;;;;;;;;;5079806;28;20406;-87
2020/12/01 13:40:34;;;;;;;10.07;5.47;;;;;;;;;;5081237;28;20418;-87
2020/12/01 13:43:00;;;;;;;6.27;5.20;;;;;;;;;;5081268;28;20445;-86
2020/12/01 13:45:26;;;;;;;7.83;5.53;;;;;;;;;;5081732;28;20417;-89
2020/12/01 13:47:52;;;;;;;9.20;5.13;;;;;;;;;;5078521;28;20414;-87
2020/12/01 13:50:21;;;;;;;8.00;5.17;;;;;;;;;;5077284;28;20473;-87
2020/12/01 13:52:47;;;;;;;6.03;4.50;;;;;;;;;;5077583;28;20457;-88
2020/12/01 13:55:13;;;;;;;8.93;6.03;;;;;;;;;;5066723;28;20394;-84
2020/12/01 13:57:40;;;;;;;10.70;6.60;;;;;;;;;;5067641;28;20421;-84
2020/12/01 14:00:15;;;;;;;8.13;4.50;;;;;;;;;;5080844;28;20413;-86
2020/12/01 14:02:41;;;;;;;7.50;5.30;;;;;;;;;;5074884;28;20480;-85
2020/12/01 14:05:07;;;;;;;7.00;5.80;;;;;;;;;;5070864;28;20447;-84
2020/12/01 14:07:33;;;;;;;9.47;6.23;;;;;;;;;;5092140;28;20795;-86
2020/12/01 14:09:59;;;;;;;10.80;5.83;;;;;;;;;;5045707;28;20492;-86
2020/12/01 14:12:25;;;;;;;11.03;6.20;;;;;;;;;;5091815;28;20517;-86
2020/12/01 14:14:51;;;;;;;6.20;5.30;;;;;;;;;;5070808;28;20425;-86
2020/12/01 14:17:17;;;;;;;9.93;5.30;;;;;;;;;;5074180;28;20497;-86
2020/12/01 14:19:44;;;;;;;6.90;5.40;;;;;;;;;;5067509;28;20402;-87
2020/12/01 14:22:15;;;;;;;6.87;5.53;;;;;;;;;;5060821;28;20461;-87
2020/12/01 14:24:41;;;;;;;9.83;6.53;;;;;;;;;;5057939;28;20522;-86
2020/12/01 14:27:11;;;;;;;7.50;5.13;;;;;;;;;;5045067;28;20418;-88
2020/12/01 14:29:37;;;;;;;8.50;5.37;;;;;;;;;;5065181;28;20422;-87
2020/12/01 14:32:03;;;;;;;7.73;5.70;;;;;;;;;;5067518;28;20405;-85
2020/12/01 14:34:29;;;;;;;7.60;5.20;;;;;;;;;;5064801;28;20445;-87
2020/12/01 14:36:58;;;;;;;7.20;5.37;;;;;;;;;;5063043;28;20767;-86
2020/12/01 14:39:26;;;;;;;12.00;6.60;;;;;;;;;;5056972;28;20423;-87
2020/12/01 14:42:16;;;;;;;11.90;6.60;;;;;;;;;;5056702;28;20458;-87
2020/12/01 14:44:45;;;;;;;9.93;4.97;;;;;;;;;;5059653;28;20446;-87
2020/12/01 14:47:34;;;;;;;9.90;6.63;;;;;;;;;;5062881;28;20414;-88
2020/12/01 14:50:09;;;;;;;9.03;4.10;;;;;;;;;;5046525;28;20481;-87
2020/12/01 14:52:43;;;;;;;8.63;4.70;;;;;;;;;;5062288;28;20447;-88
2020/12/01 14:55:48;;;;;;;6.57;4.30;;;;;;;;;;5059422;28;20805;-87
2020/12/01 14:58:14;;;;;;;6.60;4.50;;;;;;;;;;4968953;28;20429;-87
2020/12/01 15:00:51;;;;;;;6.33;4.60;;;;;;;;;;4989550;22;20459;-68
2020/12/01 15:03:32;;;;;;;5.47;4.10;;;;;;;;;;5025921;28;20450;-68
2020/12/01 15:06:12;;;;;;;6.70;4.80;;;;;;;;;;5025438;28;20403;-67
2020/12/01 15:09:01;;;;;;;9.10;5.17;;;;;;;;;;5046336;23;20524;-84
2020/12/01 15:11:31;;;;;;;9.10;4.87;;;;;;;;;;5074864;28;20433;-82
2020/12/01 15:13:57;;;;;;;7.67;5.27;;;;;;;;;;5074352;28;20418;-83
2020/12/01 15:16:26;;;;;;;8.60;5.10;;;;;;;;;;5093566;28;20425;-82
2020/12/01 15:18:53;;;;;;;5.70;4.23;;;;;;;;;;5088090;28;20439;-82
2020/12/01 15:21:21;;;;;;;7.57;5.00;;;;;;;;;;5079942;28;20559;-84
2020/12/01 15:23:52;;;;;;;7.03;3.97;;;;;;;;;;5078403;28;20460;-84
2020/12/01 15:26:18;;;;;;;4.93;3.83;;;;;;;;;;5075659;28;20420;-85
2020/12/01 15:28:45;;;;;;;5.20;4.10;;;;;;;;;;5075101;28;20520;-84
2020/12/01 15:31:14;;;;;;;4.13;3.70;;;;;;;;;;5088840;28;20461;-84